Time;durP1;ratioP1;P1;durP2;ratioP2;P2;SDS_P1;SDS_P2;PMS_P1;PMS_P2;Temp;Humidity;BMP_temperature;BMP_pressure;BME280_temperature;BME280_humidity;BME280_pressure;Samples;Min_cycle;Max_cycle;Signal;HPM_P1;HPM_P2
2022/03/26 08:27:26;;;;;;;6.62;4.85;;;;;;;18.17;41.67;99945.09;1931467;72;28000;-63
2022/03/26 08:30:17;;;;;;;5.22;4.62;;;;;;;18.27;37.62;99949.69;1909681;73;28493;-63
2022/03/26 08:33:05;;;;;;;4.70;4.30;;;;;;;18.86;36.18;99948.30;1906860;73;28133;-64
2022/03/26 08:35:53;;;;;;;3.45;2.80;;;;;;;19.57;36.14;99946.20;1911173;73;28043;-64
2022/03/26 08:38:44;;;;;;;4.67;2.70;;;;;;;20.13;36.18;99946.25;1919203;73;28067;-63
2022/03/26 08:41:32;;;;;;;3.03;2.73;;;;;;;20.57;35.77;99946.52;1906351;73;28290;-63
2022/03/26 08:44:20;;;;;;;4.50;2.77;;;;;;;20.95;35.30;99938.50;1918188;73;28050;-63
2022/03/26 08:47:11;;;;;;;2.83;2.62;;;;;;;21.22;35.01;99934.67;1913544;73;28181;-63
2022/03/26 08:49:59;;;;;;;3.50;2.58;;;;;;;21.49;34.69;99936.80;1920620;73;28256;-63
2022/03/26 08:52:48;;;;;;;2.98;2.70;;;;;;;21.74;34.35;99932.78;1907248;73;28217;-65
2022/03/26 08:55:37;;;;;;;2.60;2.40;;;;;;;21.91;34.19;99928.52;1902611;73;28227;-65
2022/03/26 08:58:26;;;;;;;3.12;2.50;;;;;;;22.05;33.90;99931.48;1931022;73;28044;-67
2022/03/26 09:01:14;;;;;;;3.52;2.47;;;;;;;22.17;33.66;99925.59;1911179;73;28206;-67
2022/03/26 09:04:02;;;;;;;2.55;2.35;;;;;;;22.26;33.47;99922.07;1909026;73;31028;-65
2022/03/26 09:06:51;;;;;;;2.90;2.58;;;;;;;22.35;33.29;99919.36;1901060;73;28136;-65
2022/03/26 09:09:40;;;;;;;5.45;2.70;;;;;;;22.42;33.23;99915.52;1904139;73;28120;-67
2022/03/26 09:12:28;;;;;;;4.08;2.70;;;;;;;22.43;33.22;99915.81;1914183;73;28286;-68
2022/03/26 09:15:17;;;;;;;4.33;2.58;;;;;;;22.50;33.14;99908.91;1916009;73;28101;-68
2022/03/26 09:18:06;;;;;;;5.83;2.55;;;;;;;22.54;33.11;99906.86;1913926;73;28167;-67
2022/03/26 09:20:55;;;;;;;4.15;2.60;;;;;;;22.60;32.94;99906.51;1906376;73;28114;-67
2022/03/26 09:23:43;;;;;;;6.92;2.42;;;;;;;22.63;32.87;99907.47;1906858;73;28115;-67
2022/03/26 09:26:32;;;;;;;4.83;2.20;;;;;;;22.67;32.80;99894.99;1921084;73;28142;-69
2022/03/26 09:29:20;;;;;;;4.53;2.22;;;;;;;22.69;32.70;99896.45;1913587;73;28066;-68
2022/03/26 09:32:09;;;;;;;2.83;2.30;;;;;;;22.71;32.65;99895.39;1893208;74;28897;-67
2022/03/26 09:34:57;;;;;;;2.52;2.33;;;;;;;22.71;32.63;99896.21;1901375;73;27980;-67
2022/03/26 09:37:45;;;;;;;3.60;2.30;;;;;;;22.74;32.55;99892.19;1893946;73;28223;-69
2022/03/26 09:40:36;;;;;;;3.23;2.47;;;;;;;22.75;32.52;99885.13;1923875;73;28098;-66
2022/03/26 09:43:28;;;;;;;5.27;2.20;;;;;;;22.73;32.64;99880.42;1898681;74;28220;-80
2022/03/26 09:46:15;;;;;;;3.50;2.33;;;;;;;22.77;32.81;99880.78;1920335;73;28082;-64
2022/03/26 09:49:04;;;;;;;2.47;2.00;;;;;;;22.80;33.12;99885.82;1898724;73;28264;-64
2022/03/26 09:51:54;;;;;;;2.40;2.20;;;;;;;22.82;33.48;99880.42;1903746;74;28188;-64
2022/03/26 09:54:42;;;;;;;2.30;2.20;;;;;;;22.86;33.73;99881.64;1890204;73;28681;-64
2022/03/26 09:57:32;;;;;;;2.90;2.10;;;;;;;22.90;33.87;99875.16;1920591;73;28121;-66
2022/03/26 10:00:20;;;;;;;3.62;2.10;;;;;;;22.92;33.99;99868.95;1916307;73;28169;-64
2022/03/26 10:03:09;;;;;;;4.22;2.30;;;;;;;22.94;34.09;99867.62;1902635;73;31978;-64
2022/03/26 10:06:07;;;;;;;2.90;2.20;;;;;;;22.95;34.21;99870.69;1884213;74;28223;-74
2022/03/26 10:08:55;;;;;;;2.70;2.10;;;;;;;22.96;34.33;99860.56;1903464;74;28263;-64
2022/03/26 10:11:44;;;;;;;3.40;2.15;;;;;;;22.98;34.50;99862.02;1889301;75;28207;-66
2022/03/26 10:14:47;;;;;;;2.30;2.10;;;;;;;23.00;34.59;99859.04;1918760;73;28276;-64
2022/03/26 10:17:37;;;;;;;2.40;2.10;;;;;;;23.04;34.62;99858.35;1861536;75;28243;-63
2022/03/26 10:20:26;;;;;;;3.30;2.30;;;;;;;23.04;34.71;99844.66;1860838;75;32038;-63
2022/03/26 10:23:18;;;;;;;2.98;2.08;;;;;;;23.06;34.73;99847.16;1849373;76;28258;-65
2022/03/26 10:26:12;;;;;;;2.80;1.90;;;;;;;23.08;34.77;99840.94;1843371;76;28235;-66
2022/03/26 10:29:00;;;;;;;2.35;2.17;;;;;;;23.09;34.78;99835.22;1833053;76;28359;-66
2022/03/26 10:34:58;;;;;;;2.83;2.10;;;;;;;23.10;34.83;99827.84;1845723;76;28183;-66
2022/03/26 10:37:58;;;;;;;3.20;2.00;;;;;;;23.10;34.86;99830.05;1851387;75;28355;-65
2022/03/26 10:40:47;;;;;;;2.10;2.00;;;;;;;23.09;34.87;99824.78;1835850;76;28266;-65
2022/03/26 10:43:37;;;;;;;2.30;2.10;;;;;;;23.09;34.87;99824.25;1889611;74;31131;-65
2022/03/26 10:46:25;;;;;;;2.30;2.10;;;;;;;23.13;34.87;99821.34;1914274;73;28147;-65
2022/03/26 10:49:31;;;;;;;2.33;2.00;;;;;;;23.13;34.82;99824.09;1895674;75;28196;-66
2022/03/26 10:52:20;;;;;;;2.47;2.00;;;;;;;23.14;34.83;99820.82;1889810;75;28102;-67
2022/03/26 10:55:14;;;;;;;2.15;2.02;;;;;;;23.11;34.82;99814.42;1900562;75;28770;-64
2022/03/26 10:58:05;;;;;;;2.95;2.22;;;;;;;23.13;34.83;99810.91;1920019;73;28164;-64
2022/03/26 11:00:54;;;;;;;2.83;2.10;;;;;;;23.13;34.78;99802.17;1889690;74;28226;-66
2022/03/26 11:03:43;;;;;;;2.22;2.00;;;;;;;23.14;34.68;99796.16;1907568;73;28169;-64
2022/03/26 11:06:35;;;;;;;2.20;2.00;;;;;;;23.14;34.64;99794.27;1898857;73;28094;-63
2022/03/26 11:09:25;;;;;;;1.87;1.77;;;;;;;23.14;34.54;99791.52;1885916;74;28204;-62
2022/03/26 11:12:17;;;;;;;2.90;1.98;;;;;;;23.14;34.49;99780.56;1891643;75;28201;-62
2022/03/26 11:15:08;;;;;;;2.15;2.05;;;;;;;23.15;34.48;99782.22;1905178;73;28035;-63
2022/03/26 11:18:05;;;;;;;3.42;1.90;;;;;;;23.18;34.46;99778.18;1888033;74;28276;-63
2022/03/26 11:21:08;;;;;;;2.37;2.17;;;;;;;23.21;34.46;99778.56;1877926;73;28112;-63
2022/03/26 11:24:29;;;;;;;2.02;1.90;;;;;;;23.22;34.44;99776.67;1894361;73;28188;-63
2022/03/26 11:27:56;;;;;;;2.10;1.90;;;;;;;23.21;34.56;99770.88;1902018;74;28107;-62
2022/03/26 11:31:00;;;;;;;2.00;1.80;;;;;;;23.19;34.61;99761.52;1907005;73;28180;-63
2022/03/26 11:33:49;;;;;;;3.15;2.10;;;;;;;23.21;34.65;99758.02;1890317;74;28113;-63
2022/03/26 11:36:38;;;;;;;2.35;2.15;;;;;;;23.17;34.74;99751.33;1906172;73;28226;-65
2022/03/26 11:39:27;;;;;;;2.58;2.05;;;;;;;23.21;34.74;99752.53;1877319;75;28066;-64
2022/03/26 11:42:17;;;;;;;9.90;2.40;;;;;;;23.24;34.66;99740.27;1883531;74;28233;-64
2022/03/26 11:51:59;;;;;;;3.10;2.07;;;;;;;23.22;34.56;99736.93;1912276;73;28160;-63
2022/03/26 11:54:49;;;;;;;3.50;1.90;;;;;;;23.22;34.47;99725.41;1899723;73;28153;-63
2022/03/26 11:57:38;;;;;;;5.15;2.08;;;;;;;23.24;34.42;99715.60;1885504;75;28166;-63
2022/03/26 12:00:26;;;;;;;2.08;1.85;;;;;;;23.28;34.31;99712.69;1899066;73;27808;-63
2022/03/26 12:03:18;;;;;;;2.10;2.00;;;;;;;23.26;34.29;99710.19;1878024;74;28074;-64
2022/03/26 12:09:33;;;;;;;2.22;1.90;;;;;;;23.26;34.30;99706.61;1842828;76;28252;-63
2022/03/26 12:12:21;;;;;;;2.40;2.10;;;;;;;23.27;34.32;99704.99;1840357;76;28323;-65
2022/03/26 12:15:15;;;;;;;2.10;1.90;;;;;;;23.27;34.33;99698.67;1903410;73;28134;-64
2022/03/26 12:18:09;;;;;;;3.22;1.90;;;;;;;23.30;34.30;99695.47;1887476;74;28094;-63
2022/03/26 12:21:10;;;;;;;3.08;1.98;;;;;;;23.30;34.27;99686.72;1882217;75;28195;-66
2022/03/26 12:23:58;;;;;;;5.03;2.20;;;;;;;23.28;34.24;99686.13;1886134;74;28188;-64
2022/03/26 12:26:51;;;;;;;2.72;2.25;;;;;;;23.31;34.19;99686.19;1885686;74;28192;-63
2022/03/26 12:29:41;;;;;;;2.95;2.52;;;;;;;23.30;34.08;99677.12;1895686;74;28058;-63
2022/03/26 12:32:34;;;;;;;2.42;2.20;;;;;;;23.31;34.03;99674.66;1896117;74;28099;-63
2022/03/26 12:35:22;;;;;;;3.60;2.58;;;;;;;23.33;33.89;99671.71;1885911;74;28240;-63
2022/03/26 12:38:11;;;;;;;2.62;2.42;;;;;;;23.35;33.70;99668.23;1896534;74;28200;-63
2022/03/26 12:41:02;;;;;;;3.87;2.55;;;;;;;23.34;33.47;99664.64;1880613;74;28206;-63
2022/03/26 12:43:59;;;;;;;3.40;3.10;;;;;;;23.35;33.34;99653.99;1909399;74;28119;-62
2022/03/26 12:46:50;;;;;;;4.10;3.50;;;;;;;23.31;30.74;99643.70;1890350;74;28141;-62
2022/03/26 12:49:38;;;;;;;3.83;3.50;;;;;;;23.05;25.93;99644.95;1900353;74;28166;-65
2022/03/26 12:52:28;;;;;;;4.58;3.62;;;;;;;22.78;23.15;99646.95;1887021;74;28142;-63
2022/03/26 12:55:18;;;;;;;3.67;3.37;;;;;;;22.75;22.03;99643.29;1906916;74;28127;-63
2022/03/26 13:01:15;;;;;;;4.08;3.25;;;;;;;22.74;21.26;99639.71;1890616;74;28169;-63
2022/03/26 13:04:03;;;;;;;5.40;3.70;;;;;;;22.66;20.68;99632.64;1897419;74;28151;-63
2022/03/26 13:06:59;;;;;;;5.33;3.83;;;;;;;22.67;20.71;99629.38;1888884;74;28178;-65
2022/03/26 13:09:56;;;;;;;5.12;3.67;;;;;;;22.63;20.32;99624.08;1915260;74;28100;-63
2022/03/26 13:12:47;;;;;;;3.70;3.30;;;;;;;22.72;20.38;99626.78;1884694;74;28174;-64
2022/03/26 13:15:36;;;;;;;3.92;3.45;;;;;;;22.69;19.68;99614.92;1889644;74;28046;-61
2022/03/26 13:18:25;;;;;;;3.65;3.30;;;;;;;22.77;19.78;99613.23;1885465;74;28214;-61
2022/03/26 13:21:15;;;;;;;3.90;3.60;;;;;;;22.84;19.82;99605.77;1883551;74;28083;-63
2022/03/26 13:24:08;;;;;;;5.10;3.67;;;;;;;22.85;19.76;99602.50;1883968;74;28232;-62
2022/03/26 13:27:08;;;;;;;4.20;3.60;;;;;;;22.88;20.06;99601.48;1895886;74;28117;-62
2022/03/26 13:29:52;;;;;;;4.17;3.70;;;;;;;22.90;20.21;99583.42;1907366;74;28166;-61
2022/03/26 13:32:43;;;;;;;3.85;3.40;;;;;;;22.95;20.28;99579.45;1891364;74;28069;-62
2022/03/26 13:35:33;;;;;;;4.50;3.70;;;;;;;23.00;20.48;99576.33;1898843;74;28056;-62
2022/03/26 13:38:30;;;;;;;4.03;3.60;;;;;;;23.12;20.70;99574.97;1902191;74;28040;-63
2022/03/26 13:41:21;;;;;;;4.05;3.47;;;;;;;23.15;20.80;99573.95;1901422;74;28356;-61
2022/03/26 13:44:12;;;;;;;5.10;3.90;;;;;;;23.13;21.14;99569.77;1849982;75;28111;-63
2022/03/26 13:47:01;;;;;;;5.08;4.17;;;;;;;23.14;21.67;99567.34;1884785;74;28071;-61
2022/03/26 13:50:05;;;;;;;4.03;3.63;;;;;;;23.13;21.92;99562.39;1892064;74;28036;-61
2022/03/26 13:52:53;;;;;;;4.30;3.87;;;;;;;23.11;22.06;99560.43;1894589;74;28098;-62
2022/03/26 13:55:45;;;;;;;3.92;3.62;;;;;;;23.08;21.95;99554.05;1883682;74;28111;-63
2022/03/26 13:58:35;;;;;;;4.03;3.70;;;;;;;23.09;21.60;99550.25;1890502;74;28174;-60
2022/03/26 14:01:24;;;;;;;3.95;3.65;;;;;;;23.11;21.76;99545.36;1888112;74;28073;-60
2022/03/26 14:04:24;;;;;;;5.42;4.37;;;;;;;23.13;22.02;99543.21;1886954;74;28081;-60
2022/03/26 14:07:14;;;;;;;6.05;4.20;;;;;;;23.13;22.38;99566.50;1896325;74;28179;-61
2022/03/26 14:10:03;;;;;;;4.22;3.65;;;;;;;23.16;22.23;99548.23;1883899;74;28113;-61
2022/03/26 14:12:51;;;;;;;4.58;3.72;;;;;;;23.19;21.83;99540.07;1898514;74;28076;-62
2022/03/26 14:15:43;;;;;;;4.40;3.75;;;;;;;23.23;22.10;99558.55;1899108;74;28203;-61
2022/03/26 14:18:32;;;;;;;3.73;3.40;;;;;;;23.26;21.80;99539.42;1912182;74;28119;-61
2022/03/26 14:21:20;;;;;;;4.60;3.75;;;;;;;23.30;21.49;99535.13;1887212;74;28286;-62
2022/03/26 14:24:08;;;;;;;4.20;3.80;;;;;;;23.32;21.70;99546.68;1894070;74;28167;-61
2022/03/26 14:26:56;;;;;;;4.40;4.00;;;;;;;23.36;22.13;99541.08;1903435;74;28129;-62
2022/03/26 14:29:44;;;;;;;5.85;3.70;;;;;;;23.37;22.26;99530.39;1886034;74;28237;-62
2022/03/26 14:32:33;;;;;;;4.07;3.67;;;;;;;23.44;22.50;99533.84;1894767;74;28106;-63
2022/03/26 14:35:22;;;;;;;4.25;3.85;;;;;;;23.44;22.50;99533.84;1908837;74;28035;-62
2022/03/26 14:38:10;;;;;;;4.47;3.98;;;;;;;23.47;22.69;99532.53;1898159;74;31096;-62
2022/03/26 14:41:01;;;;;;;5.17;4.42;;;;;;;23.49;22.72;99538.08;1885047;74;28179;-62
2022/03/26 14:43:49;;;;;;;6.03;4.20;;;;;;;23.49;22.70;99525.73;1892832;74;28054;-62
2022/03/26 14:46:39;;;;;;;4.00;3.60;;;;;;;23.56;22.55;99518.75;1902996;74;28183;-62
2022/03/26 14:49:27;;;;;;;5.40;4.07;;;;;;;23.56;22.55;99507.78;1893424;74;28219;-60
2022/03/26 14:52:16;;;;;;;4.20;3.80;;;;;;;23.60;22.40;99510.33;1891573;74;28108;-60
2022/03/26 14:55:05;;;;;;;4.90;3.98;;;;;;;23.64;22.20;99511.55;1903825;74;28163;-62
2022/03/26 14:57:55;;;;;;;4.47;4.08;;;;;;;23.64;22.18;99505.50;1905168;74;28041;-60
2022/03/26 15:00:44;;;;;;;5.55;4.15;;;;;;;23.66;22.06;99501.16;1896043;74;28143;-61
2022/03/26 15:03:32;;;;;;;5.15;4.08;;;;;;;23.69;22.02;99518.48;1897971;74;31950;-62
2022/03/26 15:06:20;;;;;;;5.05;4.12;;;;;;;23.69;21.87;99508.36;1900903;74;28002;-60
2022/03/26 15:09:08;;;;;;;4.03;3.70;;;;;;;23.64;21.73;99499.20;1900932;74;28140;-61
2022/03/26 15:11:57;;;;;;;5.35;4.12;;;;;;;23.67;21.59;99501.44;1884013;74;28233;-61
2022/03/26 15:14:46;;;;;;;5.00;4.28;;;;;;;23.68;21.60;99502.59;1894008;74;30146;-61
2022/03/26 15:17:34;;;;;;;4.72;3.87;;;;;;;23.68;21.48;99497.64;1891811;74;28127;-61
2022/03/26 15:20:23;;;;;;;5.17;4.28;;;;;;;23.71;21.11;99494.42;1894754;74;28104;-62
2022/03/26 15:23:12;;;;;;;7.20;4.35;;;;;;;23.77;21.30;99497.55;1889273;74;30105;-62
2022/03/26 15:26:01;;;;;;;6.42;4.15;;;;;;;23.81;21.28;99502.84;1885462;74;28655;-63
2022/03/26 15:28:50;;;;;;;5.10;3.75;;;;;;;23.76;21.39;99489.86;1897049;74;28143;-62
2022/03/26 15:31:40;;;;;;;5.03;3.90;;;;;;;23.82;21.23;99497.13;1907755;74;28073;-63
2022/03/26 15:34:28;;;;;;;5.97;3.77;;;;;;;23.79;21.40;99496.77;1900323;74;28063;-62
2022/03/26 15:37:17;;;;;;;3.90;3.50;;;;;;;23.86;21.49;99495.56;1902608;74;28226;-62
2022/03/26 15:40:07;;;;;;;5.00;3.50;;;;;;;23.95;21.58;99485.88;1894094;74;28063;-62
2022/03/26 15:42:55;;;;;;;3.70;3.40;;;;;;;24.05;21.56;99483.88;1899675;74;28202;-61
2022/03/26 15:45:43;;;;;;;4.60;3.67;;;;;;;24.08;21.55;99497.15;1886848;74;28200;-62
2022/03/26 15:48:32;;;;;;;5.40;4.03;;;;;;;24.13;21.56;99483.53;1896967;74;28709;-62
2022/03/26 15:51:19;;;;;;;5.12;4.12;;;;;;;24.14;21.64;99493.41;1908933;73;28251;-62
2022/03/26 15:54:08;;;;;;;6.70;4.30;;;;;;;24.14;21.74;99483.80;1913144;74;27995;-62
2022/03/26 15:56:56;;;;;;;5.53;4.17;;;;;;;24.15;21.75;99492.88;1894493;74;28152;-63
2022/03/26 15:59:45;;;;;;;5.43;4.03;;;;;;;24.15;21.75;99493.72;1887422;74;28448;-62
2022/03/26 16:02:34;;;;;;;4.80;3.72;;;;;;;24.16;21.76;99495.91;1888843;74;28105;-63
2022/03/26 16:05:22;;;;;;;4.43;3.70;;;;;;;24.14;21.77;99498.90;1912645;74;28090;-62
2022/03/26 16:08:11;;;;;;;4.05;3.65;;;;;;;24.16;21.74;99511.84;1895855;74;30066;-62
2022/03/26 16:11:00;;;;;;;4.75;3.70;;;;;;;24.14;21.68;99492.04;1915236;74;28048;-62
2022/03/26 16:13:50;;;;;;;5.25;3.47;;;;;;;24.13;21.68;99497.25;1886274;74;28019;-63
2022/03/26 16:16:38;;;;;;;3.70;3.40;;;;;;;24.15;21.55;99509.34;1884531;75;28166;-63
2022/03/26 16:19:27;;;;;;;3.50;3.20;;;;;;;24.13;21.65;99486.80;1888326;74;28116;-63
2022/03/26 16:22:17;;;;;;;3.67;3.37;;;;;;;24.12;21.60;99490.62;1903263;74;28051;-62
2022/03/26 16:25:06;;;;;;;4.28;3.22;;;;;;;24.13;21.55;99510.14;1887794;74;28182;-63
2022/03/26 16:27:55;;;;;;;4.83;3.42;;;;;;;24.12;21.53;99494.20;1886738;74;28160;-65
2022/03/26 16:30:43;;;;;;;4.37;3.27;;;;;;;24.12;21.42;99488.71;1897693;74;28216;-63
2022/03/26 16:33:32;;;;;;;3.53;2.90;;;;;;;24.09;21.51;99495.21;1895008;74;28242;-65
2022/03/26 16:36:20;;;;;;;3.72;3.08;;;;;;;24.07;21.38;99489.98;1893790;74;28007;-65
2022/03/26 16:39:08;;;;;;;3.58;2.70;;;;;;;24.05;21.48;99500.34;1893638;74;28111;-65
2022/03/26 16:41:57;;;;;;;3.37;3.07;;;;;;;24.06;21.50;99504.80;1904630;74;28098;-64
2022/03/26 16:44:45;;;;;;;3.60;3.10;;;;;;;24.05;21.47;99499.80;1895298;74;38406;-64
2022/03/26 16:47:33;;;;;;;3.25;2.95;;;;;;;24.00;21.42;99500.23;1901036;74;28090;-64
2022/03/26 16:50:22;;;;;;;3.37;3.07;;;;;;;24.01;21.44;99515.63;1887690;74;28105;-65
2022/03/26 16:53:10;;;;;;;3.33;3.02;;;;;;;24.01;21.50;99508.77;1914489;74;28226;-64
2022/03/26 16:55:59;;;;;;;3.35;3.05;;;;;;;24.02;21.52;99506.30;1894107;74;27991;-64
2022/03/26 16:58:47;;;;;;;3.33;2.95;;;;;;;24.01;21.48;99519.75;1894519;74;28171;-64
2022/03/26 17:01:35;;;;;;;3.45;3.17;;;;;;;24.01;21.49;99499.98;1891608;74;28171;-65
2022/03/26 17:04:24;;;;;;;3.67;3.33;;;;;;;24.00;21.52;99518.06;1884980;74;28180;-64
2022/03/26 17:07:12;;;;;;;3.47;3.17;;;;;;;23.99;21.57;99529.58;1904897;74;28161;-66
2022/03/26 17:10:03;;;;;;;3.77;3.15;;;;;;;23.97;21.55;99514.42;1892892;74;28177;-64
2022/03/26 17:12:51;;;;;;;3.30;3.10;;;;;;;23.93;21.57;99517.37;1887078;74;28279;-65
2022/03/26 17:15:40;;;;;;;3.50;3.20;;;;;;;23.91;21.63;99525.86;1881344;74;28092;-66
2022/03/26 17:18:29;;;;;;;3.25;3.00;;;;;;;23.91;21.69;99527.76;1890705;74;38377;-65
2022/03/26 17:21:18;;;;;;;3.52;3.00;;;;;;;23.87;21.71;99530.70;1891485;74;28114;-64
2022/03/26 17:24:08;;;;;;;3.02;2.83;;;;;;;23.86;21.78;99527.11;1893116;74;28218;-63
2022/03/26 17:26:57;;;;;;;3.67;3.37;;;;;;;23.83;21.74;99531.70;1876358;74;28130;-64
2022/03/26 17:29:45;;;;;;;3.22;2.92;;;;;;;23.81;21.90;99531.64;1882452;74;31150;-64
2022/03/26 17:32:34;;;;;;;3.58;3.27;;;;;;;23.81;22.02;99541.25;1908606;74;28161;-65
2022/03/26 17:35:22;;;;;;;3.90;3.40;;;;;;;23.78;22.00;99539.01;1890946;74;28482;-64
2022/03/26 17:38:11;;;;;;;3.45;3.10;;;;;;;23.77;22.04;99544.19;1899705;74;28303;-64
2022/03/26 17:41:06;;;;;;;4.53;3.30;;;;;;;23.75;22.08;99540.85;1879381;74;28133;-64
2022/03/26 17:43:49;;;;;;;3.30;3.00;;;;;;;23.73;22.05;99534.78;1882246;74;28113;-65
2022/03/26 17:46:37;;;;;;;3.33;3.10;;;;;;;23.71;22.12;99547.91;1880491;74;28067;-65
2022/03/26 17:49:27;;;;;;;3.12;2.92;;;;;;;23.71;22.08;99539.11;1896660;74;28175;-63
2022/03/26 17:52:15;;;;;;;3.70;2.90;;;;;;;23.68;22.21;99542.89;1903785;74;28060;-65
2022/03/26 17:55:04;;;;;;;3.50;3.20;;;;;;;23.66;22.23;99555.48;1899877;74;28249;-64
2022/03/26 17:57:52;;;;;;;3.98;3.30;;;;;;;23.63;22.24;99546.88;1888181;74;28249;-63
2022/03/26 18:00:42;;;;;;;3.30;3.02;;;;;;;23.61;22.33;99544.92;1907619;74;31256;-64
2022/03/26 18:03:31;;;;;;;4.90;3.12;;;;;;;23.59;22.33;99550.66;1912726;74;28102;-63
2022/03/26 18:06:21;;;;;;;3.47;3.17;;;;;;;23.58;22.36;99557.20;1901241;74;28063;-64
2022/03/26 18:09:09;;;;;;;3.42;3.12;;;;;;;23.57;22.46;99558.27;1890166;74;28032;-64
2022/03/26 18:11:58;;;;;;;3.72;3.42;;;;;;;23.57;22.61;99558.27;1903387;74;28001;-64
2022/03/26 18:14:46;;;;;;;3.80;3.50;;;;;;;23.55;22.70;99562.34;1895543;74;28130;-64
2022/03/26 18:17:34;;;;;;;3.70;3.40;;;;;;;23.54;22.75;99564.78;1894711;74;28209;-64
2022/03/26 18:20:23;;;;;;;4.70;3.40;;;;;;;23.52;22.98;99561.45;1896935;74;28113;-64
2022/03/26 18:23:11;;;;;;;3.27;2.98;;;;;;;23.51;23.04;99563.34;1878135;75;28154;-63
2022/03/26 18:26:00;;;;;;;3.62;3.00;;;;;;;23.49;23.16;99566.03;1872578;74;28087;-64
2022/03/26 18:28:49;;;;;;;3.10;2.90;;;;;;;23.47;23.27;99570.39;1908971;74;28060;-63
2022/03/26 18:31:37;;;;;;;4.10;3.20;;;;;;;23.49;23.36;99582.48;1877978;74;28189;-63
2022/03/26 18:34:26;;;;;;;3.27;3.08;;;;;;;23.49;23.44;99587.43;1903210;74;28130;-63
2022/03/26 18:37:16;;;;;;;3.25;2.95;;;;;;;23.48;23.53;99591.23;1902390;74;28217;-63
2022/03/26 18:40:06;;;;;;;3.25;2.95;;;;;;;23.46;23.67;99596.65;1898140;74;28109;-64
2022/03/26 18:42:55;;;;;;;3.15;2.95;;;;;;;23.46;23.76;99598.02;1891499;74;28157;-62
2022/03/26 18:45:43;;;;;;;3.17;2.90;;;;;;;23.45;23.93;99608.70;1902718;74;28283;-63
2022/03/26 18:48:32;;;;;;;3.55;3.02;;;;;;;23.45;23.99;99610.08;1908777;74;28033;-63
2022/03/26 18:51:21;;;;;;;3.33;3.02;;;;;;;23.43;24.12;99611.70;1894184;74;28100;-63
2022/03/26 18:54:13;;;;;;;3.27;2.97;;;;;;;23.43;24.25;99614.44;1899327;74;28089;-63
2022/03/26 18:57:01;;;;;;;3.10;2.90;;;;;;;23.44;24.34;99624.84;1899584;74;28162;-64
2022/03/26 18:59:50;;;;;;;3.40;3.03;;;;;;;23.43;24.43;99624.03;1889962;74;28103;-64
2022/03/26 19:02:38;;;;;;;2.98;2.77;;;;;;;23.45;24.50;99632.02;1886769;75;28259;-65
2022/03/26 19:05:27;;;;;;;3.40;2.70;;;;;;;23.43;24.56;99628.67;1886059;74;28618;-62
2022/03/26 19:08:15;;;;;;;3.33;2.65;;;;;;;23.41;24.66;99634.94;1889680;74;28127;-63
2022/03/26 19:11:04;;;;;;;3.10;2.90;;;;;;;23.40;24.78;99637.36;1878036;74;28133;-62
2022/03/26 19:13:52;;;;;;;2.97;2.77;;;;;;;23.41;24.84;99640.42;1898348;74;28114;-63
2022/03/26 19:16:40;;;;;;;3.15;2.55;;;;;;;23.41;24.90;99639.86;1903804;74;38401;-62
2022/03/26 19:19:29;;;;;;;2.60;2.40;;;;;;;23.39;24.99;99650.23;1883948;74;27983;-62
2022/03/26 19:22:23;;;;;;;2.52;2.33;;;;;;;23.40;25.04;99650.54;1883012;74;28228;-63
2022/03/26 19:25:12;;;;;;;2.80;2.60;;;;;;;23.38;25.14;99664.46;1901299;74;35244;-62
2022/03/26 19:28:05;;;;;;;2.83;2.60;;;;;;;23.38;25.23;99680.63;1905210;74;28184;-63
2022/03/26 19:30:53;;;;;;;3.02;2.60;;;;;;;23.37;25.31;99683.90;1892560;74;28221;-63
2022/03/26 19:33:42;;;;;;;2.72;2.50;;;;;;;23.38;25.35;99682.84;1893148;74;28152;-63
2022/03/26 19:36:30;;;;;;;2.95;2.67;;;;;;;23.38;25.37;99682.28;1894729;74;28176;-63
2022/03/26 19:39:19;;;;;;;3.20;2.60;;;;;;;23.37;25.44;99685.27;1904926;74;28161;-64
2022/03/26 19:42:09;;;;;;;2.70;2.50;;;;;;;23.38;25.50;99693.25;1896530;74;28087;-64
2022/03/26 19:44:57;;;;;;;2.52;2.35;;;;;;;23.38;25.56;99691.59;1909795;74;28130;-63
2022/03/26 19:47:46;;;;;;;2.60;2.40;;;;;;;23.34;25.62;99693.42;1889685;74;28172;-63
2022/03/26 19:50:34;;;;;;;2.75;2.55;;;;;;;23.36;25.70;99700.06;1895926;74;28150;-62
2022/03/26 19:53:23;;;;;;;2.50;2.30;;;;;;;23.35;25.76;99697.85;1898960;74;28173;-62
2022/03/26 19:56:11;;;;;;;4.20;2.37;;;;;;;23.36;25.77;99706.36;1876674;74;28170;-64
2022/03/26 19:59:00;;;;;;;2.80;2.60;;;;;;;23.37;25.86;99704.45;1901871;74;28143;-63
2022/03/26 20:01:49;;;;;;;2.70;2.50;;;;;;;23.36;25.89;99715.14;1908265;74;28607;-65
2022/03/26 20:04:37;;;;;;;2.40;2.30;;;;;;;23.38;25.95;99719.29;1873160;74;28133;-63
2022/03/26 20:07:25;;;;;;;2.43;2.33;;;;;;;23.35;26.00;99719.78;1885104;74;28191;-63
2022/03/26 20:10:14;;;;;;;2.40;2.20;;;;;;;23.35;26.04;99721.16;1890430;74;28148;-63
2022/03/26 20:13:03;;;;;;;2.40;2.30;;;;;;;23.34;26.08;99716.73;1902125;74;28044;-65
2022/03/26 20:15:52;;;;;;;2.20;2.10;;;;;;;23.36;26.11;99722.00;1891609;74;28133;-65
2022/03/26 20:18:40;;;;;;;2.85;2.65;;;;;;;23.34;26.17;99730.43;1911007;74;28087;-63
2022/03/26 20:21:28;;;;;;;2.35;2.20;;;;;;;23.34;26.24;99730.92;1894643;74;28258;-63
2022/03/26 20:24:17;;;;;;;2.72;2.50;;;;;;;23.31;26.30;99730.86;1901823;74;28136;-63
2022/03/26 20:27:06;;;;;;;2.37;2.20;;;;;;;23.32;26.34;99734.44;1890533;74;28114;-62
2022/03/26 20:29:56;;;;;;;2.60;2.45;;;;;;;23.32;26.34;99738.02;1892897;74;28142;-62
2022/03/26 20:32:45;;;;;;;2.40;2.30;;;;;;;23.31;26.38;99744.56;1900612;74;28153;-62
2022/03/26 20:35:35;;;;;;;2.30;2.10;;;;;;;23.31;26.45;99747.30;1900759;74;28155;-62
2022/03/26 20:38:23;;;;;;;2.33;2.22;;;;;;;23.31;26.50;99757.45;1891616;74;28162;-63
2022/03/26 20:41:12;;;;;;;2.20;2.10;;;;;;;23.30;26.56;99763.99;1889159;74;28149;-62
2022/03/26 20:44:03;;;;;;;2.40;2.20;;;;;;;23.30;26.59;99763.47;1886892;74;28128;-64
2022/03/26 20:46:52;;;;;;;2.27;2.12;;;;;;;23.30;26.61;99778.55;1897263;74;28111;-62
2022/03/26 20:49:40;;;;;;;2.45;2.25;;;;;;;23.30;26.66;99779.91;1903473;74;28032;-63
2022/03/26 20:52:29;;;;;;;2.40;2.20;;;;;;;23.34;26.68;99780.27;1883861;74;28687;-64
2022/03/26 20:55:18;;;;;;;2.65;2.17;;;;;;;23.32;26.69;99781.04;1894702;74;28189;-63
2022/03/26 20:58:07;;;;;;;2.63;2.43;;;;;;;23.29;26.78;99787.81;1900861;74;28288;-64
2022/03/26 21:00:57;;;;;;;2.25;2.15;;;;;;;23.29;26.83;99794.67;1898126;74;28145;-64
2022/03/26 21:03:45;;;;;;;2.40;2.20;;;;;;;23.27;26.85;99796.81;1886635;74;35168;-63
2022/03/26 21:06:34;;;;;;;2.30;2.20;;;;;;;23.27;26.91;99801.45;1878892;75;28137;-63
2022/03/26 21:09:23;;;;;;;2.40;2.20;;;;;;;23.27;26.91;99800.92;1898872;74;28145;-63
2022/03/26 21:12:15;;;;;;;2.30;2.20;;;;;;;23.27;26.95;99804.19;1900408;74;28203;-63
2022/03/26 21:15:07;;;;;;;2.22;2.12;;;;;;;23.25;27.03;99812.66;1906455;74;28153;-63
2022/03/26 21:17:55;;;;;;;2.40;2.20;;;;;;;23.26;27.03;99815.72;1879550;74;28067;-63
2022/03/26 21:20:44;;;;;;;2.40;2.20;;;;;;;23.26;27.05;99821.72;1888096;74;28052;-63
2022/03/26 21:23:33;;;;;;;2.10;2.00;;;;;;;23.24;27.10;99825.23;1902556;74;28184;-63
2022/03/26 21:26:21;;;;;;;2.33;2.22;;;;;;;23.23;27.13;99831.24;1880851;75;28213;-63
2022/03/26 21:29:09;;;;;;;2.17;2.08;;;;;;;23.23;27.16;99840.83;1889001;74;28192;-65
2022/03/26 21:31:58;;;;;;;2.20;2.10;;;;;;;23.23;27.19;99843.58;1898894;74;28281;-63
2022/03/26 21:34:46;;;;;;;2.00;1.90;;;;;;;23.22;27.24;99841.89;1896405;74;28221;-63
2022/03/26 21:37:35;;;;;;;2.10;2.00;;;;;;;23.23;27.27;99851.80;1905956;74;28095;-64
2022/03/26 21:40:24;;;;;;;2.12;2.02;;;;;;;23.25;27.29;99852.93;1889338;74;28145;-64
2022/03/26 21:43:14;;;;;;;2.33;2.12;;;;;;;23.24;27.31;99849.90;1906807;74;28180;-65
2022/03/26 21:46:04;;;;;;;2.27;2.12;;;;;;;23.22;27.35;99851.48;1896010;74;28603;-65
2022/03/26 21:48:52;;;;;;;2.30;2.10;;;;;;;23.20;27.38;99853.62;1885639;74;28180;-64
2022/03/26 21:51:41;;;;;;;2.15;2.05;;;;;;;23.19;27.44;99853.34;1884514;74;28101;-63
2022/03/26 21:54:29;;;;;;;2.10;2.00;;;;;;;23.22;27.45;99861.63;1881274;74;28147;-64
2022/03/26 21:57:18;;;;;;;2.20;2.10;;;;;;;23.18;27.52;99863.98;1880289;75;28242;-63
2022/03/26 22:00:09;;;;;;;2.37;2.20;;;;;;;23.19;27.51;99867.04;1909241;74;28064;-64
2022/03/26 22:02:57;;;;;;;2.17;2.08;;;;;;;23.22;27.52;99865.19;1890615;74;28169;-63